sensor_id;sensor_type;location;lat;lon;timestamp;pressure;altitude;pressure_sealevel;temperature;humidity
47284;BME280;33017;51.074;17.004;2023-06-04T00:00:21;100583.19;;;24.16;33.13
47284;BME280;33017;51.074;17.004;2023-06-04T00:02:48;100586.78;;;24.16;33.22
47284;BME280;33017;51.074;17.004;2023-06-04T00:05:15;100583.38;;;24.14;33.19
47284;BME280;33017;51.074;17.004;2023-06-04T00:07:41;100587.22;;;24.13;33.09
47284;BME280;33017;51.074;17.004;2023-06-04T00:10:08;100592.94;;;24.12;33.30
47284;BME280;33017;51.074;17.004;2023-06-04T00:12:36;100591.88;;;24.13;33.21
47284;BME280;33017;51.074;17.004;2023-06-04T00:15:03;100604.16;;;24.10;33.22
47284;BME280;33017;51.074;17.004;2023-06-04T00:17:29;100585.78;;;24.11;33.08
47284;BME280;33017;51.074;17.004;2023-06-04T00:19:56;100580.44;;;24.09;33.22
47284;BME280;33017;51.074;17.004;2023-06-04T00:22:23;100580.44;;;24.09;33.30
47284;BME280;33017;51.074;17.004;2023-06-04T00:24:50;100592.06;;;24.11;33.37
47284;BME280;33017;51.074;17.004;2023-06-04T00:27:17;100583.84;;;24.11;33.37
47284;BME280;33017;51.074;17.004;2023-06-04T00:29:44;100582.34;;;24.09;33.15
47284;BME280;33017;51.074;17.004;2023-06-04T00:32:10;100577.09;;;24.07;33.42
47284;BME280;33017;51.074;17.004;2023-06-04T00:34:37;100576.25;;;24.07;33.61
47284;BME280;33017;51.074;17.004;2023-06-04T00:37:04;100579.00;;;24.07;33.36
47284;BME280;33017;51.074;17.004;2023-06-04T00:39:31;100574.56;;;24.06;33.41
47284;BME280;33017;51.074;17.004;2023-06-04T00:41:58;100576.25;;;24.07;33.43
47284;BME280;33017;51.074;17.004;2023-06-04T00:44:25;100575.63;;;24.05;33.54
47284;BME280;33017;51.074;17.004;2023-06-04T00:46:52;100574.56;;;24.06;33.51
47284;BME280;33017;51.074;17.004;2023-06-04T00:49:20;100564.84;;;24.03;33.63
47284;BME280;33017;51.074;17.004;2023-06-04T00:51:47;100565.47;;;24.05;33.47
47284;BME280;33017;51.074;17.004;2023-06-04T00:54:14;100571.19;;;24.04;33.68
47284;BME280;33017;51.074;17.004;2023-06-04T00:56:42;100565.94;;;24.02;33.59
47284;BME280;33017;51.074;17.004;2023-06-04T00:59:09;100567.84;;;24.02;33.61
47284;BME280;33017;51.074;17.004;2023-06-04T01:01:45;100571.44;;;24.02;33.61
47284;BME280;33017;51.074;17.004;2023-06-04T01:04:18;100567.84;;;24.02;33.67
47284;BME280;33017;51.074;17.004;2023-06-04T01:06:49;100568.03;;;24.00;33.80
47284;BME280;33017;51.074;17.004;2023-06-04T01:09:16;100568.88;;;24.01;33.73
47284;BME280;33017;51.074;17.004;2023-06-04T01:11:44;100565.53;;;23.99;33.80
47284;BME280;33017;51.074;17.004;2023-06-04T01:14:11;100566.38;;;23.99;33.68
47284;BME280;33017;51.074;17.004;2023-06-04T01:16:45;100569.34;;;23.98;33.83
47284;BME280;33017;51.074;17.004;2023-06-04T01:19:22;100568.28;;;23.99;33.92
47284;BME280;33017;51.074;17.004;2023-06-04T01:21:58;100570.38;;;23.97;33.70
47284;BME280;33017;51.074;17.004;2023-06-04T01:24:27;100573.13;;;23.97;33.89
47284;BME280;33017;51.074;17.004;2023-06-04T01:26:54;100575.88;;;23.97;34.00
47284;BME280;33017;51.074;17.004;2023-06-04T01:29:22;100576.31;;;23.94;33.78
47284;BME280;33017;51.074;17.004;2023-06-04T01:31:50;100572.53;;;23.95;33.99
47284;BME280;33017;51.074;17.004;2023-06-04T01:34:17;100568.72;;;23.96;33.97
47284;BME280;33017;51.074;17.004;2023-06-04T01:36:44;100568.72;;;23.96;33.83
47284;BME280;33017;51.074;17.004;2023-06-04T01:39:11;100567.03;;;23.95;33.78
47284;BME280;33017;51.074;17.004;2023-06-04T01:41:38;100570.03;;;23.93;34.02
47284;BME280;33017;51.074;17.004;2023-06-04T01:44:04;100577.41;;;23.93;34.04
47284;BME280;33017;51.074;17.004;2023-06-04T01:46:31;100562.81;;;23.92;33.74
47284;BME280;33017;51.074;17.004;2023-06-04T01:48:58;100566.63;;;23.91;34.12
47284;BME280;33017;51.074;17.004;2023-06-04T01:51:25;100564.72;;;23.92;33.93
47284;BME280;33017;51.074;17.004;2023-06-04T01:53:51;100572.13;;;23.91;34.12
47284;BME280;33017;51.074;17.004;2023-06-04T01:56:18;100564.72;;;23.92;34.17
47284;BME280;33017;51.074;17.004;2023-06-04T01:58:47;100577.00;;;23.89;34.18
47284;BME280;33017;51.074;17.004;2023-06-04T02:01:14;100572.38;;;23.90;34.12
47284;BME280;33017;51.074;17.004;2023-06-04T02:03:43;100565.41;;;23.87;33.92
47284;BME280;33017;51.074;17.004;2023-06-04T02:06:11;100567.91;;;23.89;34.29
47284;BME280;33017;51.074;17.004;2023-06-04T02:08:39;100567.06;;;23.88;34.30
47284;BME280;33017;51.074;17.004;2023-06-04T02:11:08;100571.72;;;23.88;34.03
47284;BME280;33017;51.074;17.004;2023-06-04T02:13:35;100567.06;;;23.88;34.29
47284;BME280;33017;51.074;17.004;2023-06-04T02:16:02;100565.41;;;23.87;34.40
47284;BME280;33017;51.074;17.004;2023-06-04T02:18:29;100562.25;;;23.84;34.26
47284;BME280;33017;51.074;17.004;2023-06-04T02:20:56;100569.41;;;23.85;34.10
47284;BME280;33017;51.074;17.004;2023-06-04T02:23:23;100568.59;;;23.84;34.22
47284;BME280;33017;51.074;17.004;2023-06-04T02:25:52;100569.41;;;23.85;34.17
47284;BME280;33017;51.074;17.004;2023-06-04T02:28:19;100574.91;;;23.85;34.48
47284;BME280;33017;51.074;17.004;2023-06-04T02:30:46;100574.09;;;23.84;34.36
47284;BME280;33017;51.074;17.004;2023-06-04T02:33:13;100577.66;;;23.85;34.36
47284;BME280;33017;51.074;17.004;2023-06-04T02:35:40;100576.19;;;23.82;34.29
47284;BME280;33017;51.074;17.004;2023-06-04T02:38:07;100573.44;;;23.82;34.39
47284;BME280;33017;51.074;17.004;2023-06-04T02:40:34;100574.31;;;23.83;34.31
47284;BME280;33017;51.074;17.004;2023-06-04T02:43:01;100586.34;;;23.82;34.50
47284;BME280;33017;51.074;17.004;2023-06-04T02:45:28;100567.34;;;23.80;34.54
47284;BME280;33017;51.074;17.004;2023-06-04T02:47:55;100580.03;;;23.81;34.53
47284;BME280;33017;51.074;17.004;2023-06-04T02:50:22;100580.03;;;23.81;34.62
47284;BME280;33017;51.074;17.004;2023-06-04T02:52:48;100579.38;;;23.79;34.53
47284;BME280;33017;51.074;17.004;2023-06-04T02:55:16;100576.63;;;23.79;34.58
47284;BME280;33017;51.074;17.004;2023-06-04T02:57:43;100574.13;;;23.77;34.67
47284;BME280;33017;51.074;17.004;2023-06-04T03:00:13;100574.97;;;23.78;34.43
47284;BME280;33017;51.074;17.004;2023-06-04T03:02:44;100576.03;;;23.77;34.58
47284;BME280;33017;51.074;17.004;2023-06-04T03:05:11;100574.13;;;23.77;34.56
47284;BME280;33017;51.074;17.004;2023-06-04T03:07:41;100581.53;;;23.77;34.65
47284;BME280;33017;51.074;17.004;2023-06-04T03:10:10;100585.31;;;23.76;34.44
47284;BME280;33017;51.074;17.004;2023-06-04T03:12:37;100585.31;;;23.76;34.70
47284;BME280;33017;51.074;17.004;2023-06-04T03:15:04;100583.66;;;23.75;34.71
47284;BME280;33017;51.074;17.004;2023-06-04T03:17:31;100591.91;;;23.75;34.63
47284;BME280;33017;51.074;17.004;2023-06-04T03:19:58;100587.47;;;23.74;34.69
47284;BME280;33017;51.074;17.004;2023-06-04T03:22:25;100591.91;;;23.75;34.88
47284;BME280;33017;51.074;17.004;2023-06-04T03:24:52;100588.31;;;23.74;34.78
47284;BME280;33017;51.074;17.004;2023-06-04T03:27:19;100592.34;;;23.72;34.72
47284;BME280;33017;51.074;17.004;2023-06-04T03:29:46;100596.75;;;23.73;34.70
47284;BME280;33017;51.074;17.004;2023-06-04T03:32:15;100597.59;;;23.73;34.83
47284;BME280;33017;51.074;17.004;2023-06-04T03:34:44;100606.91;;;23.72;34.65
47284;BME280;33017;51.074;17.004;2023-06-04T03:37:11;100601.63;;;23.71;34.61
47284;BME280;33017;51.074;17.004;2023-06-04T03:39:38;100600.56;;;23.72;34.69
47284;BME280;33017;51.074;17.004;2023-06-04T03:42:08;100602.47;;;23.71;34.81
47284;BME280;33017;51.074;17.004;2023-06-04T03:44:35;100599.13;;;23.69;34.75
47284;BME280;33017;51.074;17.004;2023-06-04T03:47:03;100600.78;;;23.70;34.88
47284;BME280;33017;51.074;17.004;2023-06-04T03:49:30;100604.59;;;23.69;35.04
47284;BME280;33017;51.074;17.004;2023-06-04T03:51:57;100601.88;;;23.69;35.13
47284;BME280;33017;51.074;17.004;2023-06-04T03:54:24;100600.16;;;23.68;34.94
47284;BME280;33017;51.074;17.004;2023-06-04T03:56:51;100608.41;;;23.68;35.14
47284;BME280;33017;51.074;17.004;2023-06-04T03:59:18;100607.34;;;23.69;34.98
47284;BME280;33017;51.074;17.004;2023-06-04T04:01:46;100612.22;;;23.67;34.93
47284;BME280;33017;51.074;17.004;2023-06-04T04:04:12;100608.19;;;23.70;34.94
47284;BME280;33017;51.074;17.004;2023-06-04T04:06:39;100606.72;;;23.67;35.22
47284;BME280;33017;51.074;17.004;2023-06-04T04:09:07;100609.47;;;23.67;34.87
47284;BME280;33017;51.074;17.004;2023-06-04T04:11:35;100603.34;;;23.65;35.20
47284;BME280;33017;51.074;17.004;2023-06-04T04:14:03;100604.19;;;23.66;35.05
47284;BME280;33017;51.074;17.004;2023-06-04T04:16:30;100603.97;;;23.67;34.92
47284;BME280;33017;51.074;17.004;2023-06-04T04:18:57;100603.34;;;23.65;34.93
47284;BME280;33017;51.074;17.004;2023-06-04T04:21:24;100608.00;;;23.65;35.08
47284;BME280;33017;51.074;17.004;2023-06-04T04:23:51;100609.47;;;23.67;35.06
47284;BME280;33017;51.074;17.004;2023-06-04T04:26:18;100601.66;;;23.64;35.13
47284;BME280;33017;51.074;17.004;2023-06-04T04:28:49;100606.94;;;23.66;35.07
47284;BME280;33017;51.074;17.004;2023-06-04T04:31:20;100614.34;;;23.65;35.18
47284;BME280;33017;51.074;17.004;2023-06-04T04:33:49;100535.16;;;23.18;35.26
47284;BME280;33017;51.074;17.004;2023-06-04T04:36:19;100609.91;;;23.64;35.09
47284;BME280;33017;51.074;17.004;2023-06-04T04:38:48;100609.03;;;23.64;35.13
47284;BME280;33017;51.074;17.004;2023-06-04T04:41:24;100617.09;;;23.65;35.11
47284;BME280;33017;51.074;17.004;2023-06-04T04:43:53;100614.34;;;23.65;35.03
47284;BME280;33017;51.074;17.004;2023-06-04T04:46:27;100612.66;;;23.64;35.37
47284;BME280;33017;51.074;17.004;2023-06-04T04:48:54;100616.47;;;23.63;35.13
47284;BME280;33017;51.074;17.004;2023-06-04T04:51:20;100618.97;;;23.65;35.15
47284;BME280;33017;51.074;17.004;2023-06-04T04:53:48;100614.78;;;23.62;35.29
47284;BME280;33017;51.074;17.004;2023-06-04T04:56:15;100604.63;;;23.63;35.29
47284;BME280;33017;51.074;17.004;2023-06-04T04:58:47;100612.03;;;23.62;35.36
47284;BME280;33017;51.074;17.004;2023-06-04T05:01:14;100613.72;;;23.63;35.19
47284;BME280;33017;51.074;17.004;2023-06-04T05:03:42;100616.69;;;23.62;35.23
47284;BME280;33017;51.074;17.004;2023-06-04T05:06:11;100616.47;;;23.63;35.31
47284;BME280;33017;51.074;17.004;2023-06-04T05:08:38;100622.78;;;23.64;35.40
47284;BME280;33017;51.074;17.004;2023-06-04T05:11:05;100620.03;;;23.64;35.33
47284;BME280;33017;51.074;17.004;2023-06-04T05:13:33;100622.56;;;23.65;35.36
47284;BME280;33017;51.074;17.004;2023-06-04T05:16:03;100619.22;;;23.63;35.46
47284;BME280;33017;51.074;17.004;2023-06-04T05:18:39;100618.13;;;23.64;35.13
47284;BME280;33017;51.074;17.004;2023-06-04T05:21:10;100618.97;;;23.65;35.30
47284;BME280;33017;51.074;17.004;2023-06-04T05:23:43;100625.75;;;23.62;35.36
47284;BME280;33017;51.074;17.004;2023-06-04T05:26:16;100623.00;;;23.62;35.46
47284;BME280;33017;51.074;17.004;2023-06-04T05:28:43;100624.72;;;23.63;35.59
47284;BME280;33017;51.074;17.004;2023-06-04T05:31:13;100625.53;;;23.64;35.36
47284;BME280;33017;51.074;17.004;2023-06-04T05:33:44;100632.94;;;23.63;35.20
47284;BME280;33017;51.074;17.004;2023-06-04T05:36:15;100633.75;;;23.64;35.41
47284;BME280;33017;51.074;17.004;2023-06-04T05:38:48;100631.00;;;23.64;35.37
47284;BME280;33017;51.074;17.004;2023-06-04T05:41:31;100632.09;;;23.63;35.37
47284;BME280;33017;51.074;17.004;2023-06-04T05:44:00;100628.50;;;23.62;35.38
47284;BME280;33017;51.074;17.004;2023-06-04T05:46:28;100623.63;;;23.64;35.72
47284;BME280;33017;51.074;17.004;2023-06-04T05:48:55;100622.56;;;23.65;35.57
47284;BME280;33017;51.074;17.004;2023-06-04T05:51:22;100629.53;;;23.68;35.63
47284;BME280;33017;51.074;17.004;2023-06-04T05:53:50;100631.00;;;23.70;35.27
47284;BME280;33017;51.074;17.004;2023-06-04T05:56:17;100634.16;;;23.74;35.36
47284;BME280;33017;51.074;17.004;2023-06-04T05:58:50;100631.19;;;23.75;35.62
47284;BME280;33017;51.074;17.004;2023-06-04T06:01:18;100631.81;;;23.77;35.49
47284;BME280;33017;51.074;17.004;2023-06-04T06:03:45;100640.66;;;23.79;35.69
47284;BME280;33017;51.074;17.004;2023-06-04T06:06:13;100633.03;;;23.82;35.59
47284;BME280;33017;51.074;17.004;2023-06-04T06:08:40;100633.69;;;23.84;35.54
47284;BME280;33017;51.074;17.004;2023-06-04T06:11:06;100632.38;;;23.86;35.43
47284;BME280;33017;51.074;17.004;2023-06-04T06:13:36;100628.59;;;23.87;35.61
47284;BME280;33017;51.074;17.004;2023-06-04T06:16:04;100634.69;;;23.89;35.74
47284;BME280;33017;51.074;17.004;2023-06-04T06:18:31;100638.06;;;23.91;35.71
47284;BME280;33017;51.074;17.004;2023-06-04T06:20:59;100636.16;;;23.92;35.61
47284;BME280;33017;51.074;17.004;2023-06-04T06:23:26;100633.22;;;23.93;35.60
47284;BME280;33017;51.074;17.004;2023-06-04T06:25:53;100633.22;;;23.93;35.55
47284;BME280;33017;51.074;17.004;2023-06-04T06:28:26;100642.91;;;23.96;35.57
47284;BME280;33017;51.074;17.004;2023-06-04T06:30:54;100640.78;;;23.98;35.43
47284;BME280;33017;51.074;17.004;2023-06-04T06:33:20;100639.28;;;24.02;35.38
47284;BME280;33017;51.074;17.004;2023-06-04T06:35:50;100639.88;;;24.04;35.56
47284;BME280;33017;51.074;17.004;2023-06-04T06:38:17;100629.75;;;24.04;35.29
47284;BME280;33017;51.074;17.004;2023-06-04T06:40:44;100648.28;;;24.09;35.33
47284;BME280;33017;51.074;17.004;2023-06-04T06:43:11;100645.38;;;24.10;35.18
47284;BME280;33017;51.074;17.004;2023-06-04T06:45:38;100646.59;;;24.14;35.22
47284;BME280;33017;51.074;17.004;2023-06-04T06:48:04;100650.38;;;24.20;35.19
47284;BME280;33017;51.074;17.004;2023-06-04T06:50:31;100653.31;;;24.25;35.06
47284;BME280;33017;51.074;17.004;2023-06-04T06:52:59;100651.34;;;24.32;35.09
47284;BME280;33017;51.074;17.004;2023-06-04T06:55:26;100649.38;;;24.39;35.17
47284;BME280;33017;51.074;17.004;2023-06-04T06:57:53;100647.88;;;24.43;35.08
47284;BME280;33017;51.074;17.004;2023-06-04T07:00:22;100656.28;;;24.48;34.92
47284;BME280;33017;51.074;17.004;2023-06-04T07:02:49;100653.25;;;24.56;34.96
47284;BME280;33017;51.074;17.004;2023-06-04T07:05:16;100652.88;;;24.28;34.72
47284;BME280;33017;51.074;17.004;2023-06-04T07:07:44;100653.50;;;23.92;34.11
47284;BME280;33017;51.074;17.004;2023-06-04T07:10:10;100653.78;;;24.09;34.29
47284;BME280;33017;51.074;17.004;2023-06-04T07:12:37;100650.75;;;24.23;34.22
47284;BME280;33017;51.074;17.004;2023-06-04T07:15:07;100647.13;;;24.29;34.36
47284;BME280;33017;51.074;17.004;2023-06-04T07:17:35;100656.22;;;24.30;34.67
47284;BME280;33017;51.074;17.004;2023-06-04T07:20:03;100650.97;;;24.28;34.70
47284;BME280;33017;51.074;17.004;2023-06-04T07:22:33;100646.75;;;24.26;34.86
47284;BME280;33017;51.074;17.004;2023-06-04T07:25:00;100654.59;;;24.22;35.28
47284;BME280;33017;51.074;17.004;2023-06-04T07:27:27;100649.53;;;24.19;35.70
47284;BME280;33017;51.074;17.004;2023-06-04T07:29:54;100658.19;;;24.23;35.08
47284;BME280;33017;51.074;17.004;2023-06-04T07:32:21;100653.91;;;24.27;34.22
47284;BME280;33017;51.074;17.004;2023-06-04T07:34:48;100648.41;;;24.27;33.93
47284;BME280;33017;51.074;17.004;2023-06-04T07:37:14;100651.56;;;24.30;33.56
47284;BME280;33017;51.074;17.004;2023-06-04T07:39:41;100653.88;;;24.33;33.36
47284;BME280;33017;51.074;17.004;2023-06-04T07:42:08;100655.59;;;24.28;33.38
47284;BME280;33017;51.074;17.004;2023-06-04T07:44:36;100658.19;;;24.23;33.72
47284;BME280;33017;51.074;17.004;2023-06-04T07:47:03;100655.44;;;24.23;33.94
47284;BME280;33017;51.074;17.004;2023-06-04T07:49:30;100655.81;;;24.26;33.72
47284;BME280;33017;51.074;17.004;2023-06-04T07:51:57;100657.50;;;24.27;32.28
47284;BME280;33017;51.074;17.004;2023-06-04T07:54:24;100651.16;;;24.27;32.10
47284;BME280;33017;51.074;17.004;2023-06-04T07:56:51;100648.41;;;24.27;32.90
47284;BME280;33017;51.074;17.004;2023-06-04T07:59:22;100646.97;;;24.24;33.08
47284;BME280;33017;51.074;17.004;2023-06-04T08:01:50;100650.13;;;24.28;33.38
47284;BME280;33017;51.074;17.004;2023-06-04T08:04:18;100646.97;;;24.24;33.48
47284;BME280;33017;51.074;17.004;2023-06-04T08:06:45;100647.81;;;24.25;33.65
47284;BME280;33017;51.074;17.004;2023-06-04T08:09:11;100646.56;;;24.21;33.60
47284;BME280;33017;51.074;17.004;2023-06-04T08:11:39;100643.41;;;24.17;33.58
47284;BME280;33017;51.074;17.004;2023-06-04T08:14:05;100640.63;;;24.24;33.58
47284;BME280;33017;51.074;17.004;2023-06-04T08:16:32;100645.06;;;24.25;33.29
47284;BME280;33017;51.074;17.004;2023-06-04T08:18:59;100644.38;;;24.29;32.93
47284;BME280;33017;51.074;17.004;2023-06-04T08:21:26;100647.97;;;24.30;33.02
47284;BME280;33017;51.074;17.004;2023-06-04T08:23:53;100646.06;;;24.30;32.84
47284;BME280;33017;51.074;17.004;2023-06-04T08:26:21;100646.28;;;24.29;31.68
47284;BME280;33017;51.074;17.004;2023-06-04T08:28:47;100650.88;;;24.35;32.08
47284;BME280;33017;51.074;17.004;2023-06-04T08:31:15;100645.19;;;24.37;32.08
47284;BME280;33017;51.074;17.004;2023-06-04T08:33:46;100639.69;;;24.37;32.40
47284;BME280;33017;51.074;17.004;2023-06-04T08:36:13;100644.94;;;24.38;32.53
47284;BME280;33017;51.074;17.004;2023-06-04T08:38:40;100643.03;;;24.39;32.77
47284;BME280;33017;51.074;17.004;2023-06-04T08:41:15;100646.88;;;24.38;32.87
47284;BME280;33017;51.074;17.004;2023-06-04T08:43:43;100654.88;;;24.39;33.04
47284;BME280;33017;51.074;17.004;2023-06-04T08:46:15;100648.78;;;24.37;33.21
47284;BME280;33017;51.074;17.004;2023-06-04T08:48:42;100652.97;;;24.40;33.19
47284;BME280;33017;51.074;17.004;2023-06-04T08:51:08;100656.97;;;24.44;32.08
47284;BME280;33017;51.074;17.004;2023-06-04T08:53:37;100660.78;;;24.43;31.17
47284;BME280;33017;51.074;17.004;2023-06-04T08:56:04;100661.22;;;24.40;31.68
47284;BME280;33017;51.074;17.004;2023-06-04T08:58:31;100666.72;;;24.40;32.02
47284;BME280;33017;51.074;17.004;2023-06-04T09:01:02;100662.94;;;24.41;32.33
47284;BME280;33017;51.074;17.004;2023-06-04T09:03:29;100665.44;;;24.42;32.25
47284;BME280;33017;51.074;17.004;2023-06-04T09:05:59;100662.47;;;24.44;32.46
47284;BME280;33017;51.074;17.004;2023-06-04T09:08:27;100666.69;;;24.46;32.26
47284;BME280;33017;51.074;17.004;2023-06-04T09:10:57;100667.28;;;24.48;31.42
47284;BME280;33017;51.074;17.004;2023-06-04T09:13:27;100657.53;;;24.52;30.73
47284;BME280;33017;51.074;17.004;2023-06-04T09:15:58;100665.78;;;24.52;30.86
47284;BME280;33017;51.074;17.004;2023-06-04T09:18:25;100669.84;;;24.50;31.15
47284;BME280;33017;51.074;17.004;2023-06-04T09:23:28;100665.38;;;24.49;31.76
47284;BME280;33017;51.074;17.004;2023-06-04T09:25:55;100658.38;;;24.53;31.05
47284;BME280;33017;51.074;17.004;2023-06-04T09:28:22;100666.00;;;24.51;31.81
47284;BME280;33017;51.074;17.004;2023-06-04T09:30:52;100656.69;;;24.52;31.53
47284;BME280;33017;51.074;17.004;2023-06-04T09:33:19;100655.84;;;24.51;32.09
47284;BME280;33017;51.074;17.004;2023-06-04T09:35:54;100658.59;;;24.51;32.45
47284;BME280;33017;51.074;17.004;2023-06-04T09:38:21;100661.34;;;24.51;32.32
47284;BME280;33017;51.074;17.004;2023-06-04T09:40:49;100663.50;;;24.49;32.49
47284;BME280;33017;51.074;17.004;2023-06-04T09:43:22;100664.34;;;24.50;32.48
47284;BME280;33017;51.074;17.004;2023-06-04T09:45:52;100661.78;;;24.48;32.54
47284;BME280;33017;51.074;17.004;2023-06-04T09:48:20;100652.50;;;24.49;32.80
47284;BME280;33017;51.074;17.004;2023-06-04T09:50:48;100662.84;;;24.47;32.72
47284;BME280;33017;51.074;17.004;2023-06-04T09:53:15;100654.16;;;24.50;33.00
47284;BME280;33017;51.074;17.004;2023-06-04T09:55:42;100638.28;;;24.52;32.69
47284;BME280;33017;51.074;17.004;2023-06-04T09:58:10;100642.69;;;24.53;32.09
47284;BME280;33017;51.074;17.004;2023-06-04T10:00:37;100646.09;;;24.55;32.06
47284;BME280;33017;51.074;17.004;2023-06-04T10:03:04;100641.41;;;24.56;32.25
47284;BME280;33017;51.074;17.004;2023-06-04T10:05:32;100640.59;;;24.55;32.39
47284;BME280;33017;51.074;17.004;2023-06-04T10:08:03;100643.94;;;24.57;31.86
47284;BME280;33017;51.074;17.004;2023-06-04T10:10:31;100631.66;;;24.60;31.84
47284;BME280;33017;51.074;17.004;2023-06-04T10:13:00;100630.81;;;24.59;32.29
47284;BME280;33017;51.074;17.004;2023-06-04T10:15:30;100627.44;;;24.57;32.43
47284;BME280;33017;51.074;17.004;2023-06-04T10:17:58;100625.53;;;24.58;32.27
47284;BME280;33017;51.074;17.004;2023-06-04T10:20:26;100618.97;;;24.59;32.35
47284;BME280;33017;51.074;17.004;2023-06-04T10:22:52;100623.19;;;24.61;31.21
47284;BME280;33017;51.074;17.004;2023-06-04T10:25:19;100622.56;;;24.59;31.49
47284;BME280;33017;51.074;17.004;2023-06-04T10:27:46;100622.16;;;24.56;31.58
47284;BME280;33017;51.074;17.004;2023-06-04T10:30:13;100613.91;;;24.56;31.51
47284;BME280;33017;51.074;17.004;2023-06-04T10:32:40;100618.59;;;24.55;31.63
47284;BME280;33017;51.074;17.004;2023-06-04T10:35:07;100621.56;;;24.54;31.73
47284;BME280;33017;51.074;17.004;2023-06-04T10:37:34;100624.31;;;24.54;31.50
47284;BME280;33017;51.074;17.004;2023-06-04T10:40:01;100621.34;;;24.55;30.87
47284;BME280;33017;51.074;17.004;2023-06-04T10:42:38;100612.00;;;24.56;29.62
47284;BME280;33017;51.074;17.004;2023-06-04T10:45:05;100608.66;;;24.54;29.60
47284;BME280;33017;51.074;17.004;2023-06-04T10:47:33;100619.88;;;24.53;29.05
47284;BME280;33017;51.074;17.004;2023-06-04T10:50:10;100618.81;;;24.54;29.50
47284;BME280;33017;51.074;17.004;2023-06-04T10:52:52;100618.41;;;24.50;29.54
47284;BME280;33017;51.074;17.004;2023-06-04T10:55:20;100616.06;;;24.54;29.71
47284;BME280;33017;51.074;17.004;2023-06-04T10:57:56;100609.25;;;24.56;29.64
47284;BME280;33017;51.074;17.004;2023-06-04T11:00:35;100605.44;;;24.57;30.16
47284;BME280;33017;51.074;17.004;2023-06-04T11:03:02;100603.31;;;24.59;30.71
47284;BME280;33017;51.074;17.004;2023-06-04T11:05:34;100592.75;;;24.56;30.93
47284;BME280;33017;51.074;17.004;2023-06-04T11:08:01;100594.66;;;24.56;31.14
47284;BME280;33017;51.074;17.004;2023-06-04T11:10:40;100593.41;;;24.58;31.24
47284;BME280;33017;51.074;17.004;2023-06-04T11:13:06;100596.34;;;24.57;31.32
47284;BME280;33017;51.074;17.004;2023-06-04T11:15:37;100602.69;;;24.57;31.16
47284;BME280;33017;51.074;17.004;2023-06-04T11:18:06;100605.00;;;24.60;31.19
47284;BME280;33017;51.074;17.004;2023-06-04T11:20:32;100597.34;;;24.62;30.88
47284;BME280;33017;51.074;17.004;2023-06-04T11:22:59;100591.66;;;24.64;30.70
47284;BME280;33017;51.074;17.004;2023-06-04T11:25:29;100596.28;;;24.63;30.11
47284;BME280;33017;51.074;17.004;2023-06-04T11:27:57;100592.25;;;24.66;29.59
47284;BME280;33017;51.074;17.004;2023-06-04T11:30:24;100584.00;;;24.66;29.03
47284;BME280;33017;51.074;17.004;2023-06-04T11:32:59;100581.69;;;24.63;29.68
47284;BME280;33017;51.074;17.004;2023-06-04T11:35:26;100587.94;;;24.52;28.56
47284;BME280;33017;51.074;17.004;2023-06-04T11:37:53;100579.69;;;24.52;28.74
47284;BME280;33017;51.074;17.004;2023-06-04T11:40:21;100583.06;;;24.54;28.70
47284;BME280;33017;51.074;17.004;2023-06-04T11:42:48;100580.75;;;24.51;28.12
47284;BME280;33017;51.074;17.004;2023-06-04T11:45:16;100588.56;;;24.54;28.44
47284;BME280;33017;51.074;17.004;2023-06-04T11:47:44;100592.53;;;24.58;28.85
47284;BME280;33017;51.074;17.004;2023-06-04T11:50:11;100588.72;;;24.59;29.05
47284;BME280;33017;51.074;17.004;2023-06-04T11:52:38;100593.59;;;24.57;28.88
47284;BME280;33017;51.074;17.004;2023-06-04T11:55:07;100590.66;;;24.58;29.37
47284;BME280;33017;51.074;17.004;2023-06-04T11:57:34;100579.41;;;24.60;29.79
47284;BME280;33017;51.074;17.004;2023-06-04T12:00:02;100589.09;;;24.62;29.81
47284;BME280;33017;51.074;17.004;2023-06-04T12:02:29;100581.09;;;24.61;30.01
47284;BME280;33017;51.074;17.004;2023-06-04T12:04:56;100580.63;;;24.64;30.18
47284;BME280;33017;51.074;17.004;2023-06-04T12:07:23;100583.84;;;24.61;29.50
47284;BME280;33017;51.074;17.004;2023-06-04T12:09:50;100591.25;;;24.60;29.11
47284;BME280;33017;51.074;17.004;2023-06-04T12:12:21;100586.34;;;24.62;29.52
47284;BME280;33017;51.074;17.004;2023-06-04T12:14:55;100575.59;;;24.61;28.70
47284;BME280;33017;51.074;17.004;2023-06-04T12:17:22;100577.03;;;24.63;29.30
47284;BME280;33017;51.074;17.004;2023-06-04T12:19:49;100575.75;;;24.66;29.75
47284;BME280;33017;51.074;17.004;2023-06-04T12:22:17;100579.34;;;24.66;29.79
47284;BME280;33017;51.074;17.004;2023-06-04T12:24:47;100577.44;;;24.67;30.05
47284;BME280;33017;51.074;17.004;2023-06-04T12:27:15;100575.59;;;24.61;30.65
47284;BME280;33017;51.074;17.004;2023-06-04T12:29:42;100571.75;;;24.62;30.50
47284;BME280;33017;51.074;17.004;2023-06-04T12:32:09;100558.00;;;24.62;30.66
47284;BME280;33017;51.074;17.004;2023-06-04T12:34:39;100567.50;;;24.66;30.97
47284;BME280;33017;51.074;17.004;2023-06-04T12:37:07;100575.53;;;24.67;30.79
47284;BME280;33017;51.074;17.004;2023-06-04T12:39:34;100568.56;;;24.65;30.94
47284;BME280;33017;51.074;17.004;2023-06-04T12:42:03;100561.38;;;24.64;30.85
47284;BME280;33017;51.074;17.004;2023-06-04T12:44:31;100565.44;;;24.61;30.89
47284;BME280;33017;51.074;17.004;2023-06-04T12:47:00;100577.66;;;24.65;30.92